createdAt,value
2022-11-09T00:04:37.282Z,31.50
2022-11-09T00:09:59.074Z,25.30
2022-11-09T00:15:23.825Z,21.90
2022-11-09T00:20:48.087Z,22.50
2022-11-09T00:26:11.442Z,24.90
2022-11-09T00:31:33.272Z,28.60
2022-11-09T00:36:55.074Z,30.90
2022-11-09T00:42:16.734Z,22.60
2022-11-09T00:47:38.363Z,23.50
2022-11-09T00:53:01.030Z,21.60
2022-11-09T00:58:23.348Z,22.30
2022-11-09T01:03:46.149Z,22.20
2022-11-09T01:09:08.217Z,19.30
2022-11-09T01:14:32.217Z,21.80
2022-11-09T01:19:54.110Z,21.10
2022-11-09T01:25:18.079Z,22.10
2022-11-09T01:30:42.759Z,22.10
2022-11-09T01:36:10.069Z,20.80
2022-11-09T01:41:31.798Z,20.80
2022-11-09T01:46:59.744Z,19.10
2022-11-09T01:52:34.267Z,20.70
2022-11-09T01:58:09.323Z,18.30
2022-11-09T02:03:38.277Z,20.10
2022-11-09T02:09:39.062Z,20.30
2022-11-09T02:15:04.180Z,21.30
2022-11-09T02:20:27.689Z,20.80
2022-11-09T02:26:00.356Z,21.00
2022-11-09T02:31:26.176Z,23.10
2022-11-09T02:36:48.074Z,21.00
2022-11-09T02:42:20.063Z,21.40
2022-11-09T02:47:43.944Z,20.90
2022-11-09T02:53:06.266Z,21.00
2022-11-09T02:58:30.296Z,19.50
2022-11-09T03:03:52.326Z,17.80
2022-11-09T03:09:14.194Z,19.80
2022-11-09T03:14:36.085Z,18.80
2022-11-09T03:19:58.417Z,18.80
2022-11-09T03:25:20.527Z,19.50
2022-11-09T03:30:43.678Z,18.40
2022-11-09T03:36:07.227Z,18.00
2022-11-09T03:41:32.054Z,17.70
2022-11-09T03:46:53.809Z,19.00
2022-11-09T03:52:15.839Z,18.10
2022-11-09T03:57:37.644Z,19.50
2022-11-09T04:02:59.702Z,18.20
2022-11-09T04:08:21.594Z,19.60
2022-11-09T04:13:43.428Z,18.80
2022-11-09T04:19:05.027Z,18.10
2022-11-09T04:24:27.186Z,20.90
2022-11-09T04:29:49.196Z,17.50
2022-11-09T04:35:11.247Z,18.50
2022-11-09T04:40:34.445Z,18.30
2022-11-09T04:46:00.028Z,19.50
2022-11-09T04:51:21.689Z,22.30
2022-11-09T04:56:43.882Z,17.60
2022-11-09T05:02:05.411Z,16.90
2022-11-09T05:07:27.554Z,24.20
2022-11-09T05:12:49.203Z,27.10
2022-11-09T05:18:11.078Z,23.10
2022-11-09T05:23:52.099Z,20.80
2022-11-09T05:29:14.030Z,16.80
2022-11-09T05:34:35.350Z,18.10
2022-11-09T05:39:57.280Z,20.70
2022-11-09T05:45:41.487Z,20.80
2022-11-09T05:51:05.680Z,24.00
2022-11-09T05:56:27.782Z,20.90
2022-11-09T06:01:50.041Z,20.30
2022-11-09T06:07:12.199Z,22.50
2022-11-09T06:12:34.216Z,25.30
2022-11-09T06:17:57.679Z,23.40
2022-11-09T06:23:19.813Z,22.40
2022-11-09T06:28:42.489Z,22.20
2022-11-09T06:34:04.811Z,22.50
2022-11-09T06:39:27.006Z,26.70
2022-11-09T06:44:48.728Z,27.40
2022-11-09T06:50:11.865Z,29.20
2022-11-09T06:55:35.233Z,25.50
2022-11-09T07:00:57.958Z,21.90
2022-11-09T07:06:19.660Z,21.80
2022-11-09T07:11:41.576Z,21.40
2022-11-09T07:17:03.335Z,20.60
2022-11-09T07:22:25.377Z,18.90
2022-11-09T07:27:47.602Z,19.60
2022-11-09T07:33:20.252Z,19.40
2022-11-09T07:38:42.310Z,18.80
2022-11-09T07:44:04.907Z,20.00
2022-11-09T07:49:26.775Z,17.60
2022-11-09T07:54:52.166Z,19.00
2022-11-09T08:00:19.873Z,18.20
2022-11-09T08:05:44.238Z,18.20
2022-11-09T08:11:06.227Z,20.40
2022-11-09T08:16:29.424Z,18.80
2022-11-09T08:21:57.429Z,18.00
2022-11-09T08:27:19.506Z,19.70
2022-11-09T08:32:45.634Z,19.00
2022-11-09T08:38:07.481Z,19.20
2022-11-09T08:43:29.219Z,17.60
2022-11-09T08:48:50.811Z,18.70
2022-11-09T08:54:14.253Z,16.30
2022-11-09T08:59:36.204Z,16.90
2022-11-09T09:04:57.998Z,17.50
2022-11-09T09:10:20.154Z,17.00
2022-11-09T09:15:41.946Z,16.50
2022-11-09T09:21:07.898Z,16.30
2022-11-09T09:26:29.733Z,15.80
2022-11-09T09:31:51.251Z,14.40
2022-11-09T09:37:13.068Z,14.90
2022-11-09T09:42:42.939Z,13.40
2022-11-09T09:48:10.726Z,13.10
2022-11-09T09:53:37.289Z,13.20
2022-11-09T09:59:10.847Z,11.10
2022-11-09T10:04:36.882Z,13.20
2022-11-09T10:10:04.734Z,12.50
2022-11-09T10:15:47.615Z,12.90
2022-11-09T10:21:32.749Z,12.20
2022-11-09T10:27:01.602Z,13.50
2022-11-09T10:32:24.536Z,13.30
2022-11-09T10:37:50.205Z,12.00
2022-11-09T10:43:13.614Z,12.10
2022-11-09T10:48:55.977Z,12.70
2022-11-09T10:54:38.222Z,11.70
2022-11-09T11:00:21.980Z,11.90
2022-11-09T11:06:12.749Z,12.80
2022-11-09T11:12:15.382Z,11.60
2022-11-09T11:18:04.278Z,11.60
2022-11-09T11:23:45.696Z,10.00
2022-11-09T11:29:35.121Z,11.80
2022-11-09T11:35:30.017Z,11.70
2022-11-09T11:41:36.602Z,12.90
2022-11-09T11:47:42.288Z,10.30
2022-11-09T11:53:43.474Z,10.50
2022-11-09T11:59:45.026Z,9.80
2022-11-09T12:05:43.980Z,10.70
2022-11-09T12:11:46.651Z,11.50
2022-11-09T12:17:46.141Z,11.00
2022-11-09T12:23:41.846Z,9.80
2022-11-09T12:29:28.276Z,9.60
2022-11-09T12:35:09.171Z,10.00
2022-11-09T12:41:17.067Z,10.00
2022-11-09T12:47:05.143Z,10.90
2022-11-09T12:52:48.011Z,10.60
2022-11-09T12:58:31.426Z,10.00
2022-11-09T13:04:18.030Z,9.50
2022-11-09T13:10:00.709Z,10.20
2022-11-09T13:16:24.885Z,9.90
2022-11-09T13:22:19.748Z,9.90
2022-11-09T13:28:00.660Z,9.60
2022-11-09T13:33:42.497Z,9.20
2022-11-09T13:39:41.149Z,10.10
2022-11-09T13:45:42.740Z,9.50
2022-11-09T13:51:36.881Z,10.40
2022-11-09T13:57:17.774Z,11.00
2022-11-09T14:02:59.582Z,10.80
2022-11-09T14:08:41.517Z,13.00
2022-11-09T14:14:45.468Z,10.70
2022-11-09T14:20:42.244Z,11.70
2022-11-09T14:26:25.047Z,14.30
2022-11-09T14:32:32.139Z,18.50
2022-11-09T14:38:23.904Z,14.60
2022-11-09T14:44:05.567Z,14.10
2022-11-09T14:49:46.816Z,15.10
2022-11-09T14:55:27.811Z,14.00
2022-11-09T15:01:17.911Z,22.90
2022-11-09T15:07:04.009Z,18.20
2022-11-09T15:12:52.731Z,16.00
2022-11-09T15:18:36.180Z,15.50
2022-11-09T15:24:18.965Z,16.70
2022-11-09T15:29:59.968Z,17.70
2022-11-09T15:35:55.724Z,21.80
2022-11-09T15:41:37.718Z,25.20
2022-11-09T15:47:31.850Z,23.60
2022-11-09T15:53:13.677Z,24.30
2022-11-09T15:58:54.457Z,21.90
2022-11-09T16:04:35.393Z,25.20
2022-11-09T16:10:29.373Z,26.20
2022-11-09T16:16:12.051Z,27.20
2022-11-09T16:21:53.651Z,29.60
2022-11-09T16:27:49.491Z,27.60
2022-11-09T16:33:31.365Z,32.40
2022-11-09T16:39:18.723Z,34.10
2022-11-09T16:45:04.019Z,35.40
2022-11-09T16:50:45.140Z,36.20
2022-11-09T16:56:25.955Z,34.00
2022-11-09T17:02:06.515Z,32.50
2022-11-09T17:07:48.525Z,33.50
2022-11-09T17:13:29.389Z,38.30
2022-11-09T17:19:09.913Z,37.10
2022-11-09T17:24:50.440Z,29.30
2022-11-09T17:30:31.474Z,26.80
2022-11-09T17:36:14.179Z,35.90
2022-11-09T17:41:55.049Z,31.40
2022-11-09T17:47:35.904Z,35.10
2022-11-09T17:53:16.786Z,40.40
2022-11-09T17:58:57.549Z,37.90
2022-11-09T18:04:38.346Z,33.80
2022-11-09T18:10:19.171Z,32.70
2022-11-09T18:16:05.615Z,28.70
2022-11-09T18:21:47.285Z,35.60
2022-11-09T18:27:30.523Z,39.20
2022-11-09T18:33:11.621Z,32.10
2022-11-09T18:38:55.287Z,29.60
2022-11-09T18:44:36.519Z,30.40
2022-11-09T18:50:18.302Z,31.50
2022-11-09T18:56:06.285Z,25.50
2022-11-09T19:01:47.583Z,30.80
2022-11-09T19:07:28.928Z,28.30
2022-11-09T19:13:09.948Z,33.10
2022-11-09T19:18:51.039Z,36.30
2022-11-09T19:24:31.476Z,33.20
2022-11-09T19:30:12.570Z,28.80
2022-11-09T19:36:23.380Z,32.00
2022-11-09T19:41:54.617Z,32.40
2022-11-09T19:47:35.287Z,29.10
2022-11-09T19:53:16.726Z,26.70
2022-11-09T19:59:00.626Z,29.20
2022-11-09T20:04:43.564Z,23.70
2022-11-09T20:10:24.632Z,26.10
2022-11-09T20:16:07.639Z,25.30
2022-11-09T20:21:49.151Z,25.10
2022-11-09T20:27:32.287Z,23.40
2022-11-09T20:33:13.697Z,21.70
2022-11-09T20:38:54.922Z,20.60
2022-11-09T20:44:35.926Z,20.60
2022-11-09T20:50:16.890Z,20.30
2022-11-09T20:55:57.499Z,22.90
2022-11-09T21:01:38.366Z,26.60
2022-11-09T21:07:19.484Z,21.20
2022-11-09T21:13:00.338Z,20.20
2022-11-09T21:18:41.485Z,19.00
2022-11-09T21:24:40.509Z,17.70
2022-11-09T21:30:21.051Z,18.00
2022-11-09T21:36:09.697Z,20.40
2022-11-09T21:41:50.444Z,18.90
2022-11-09T21:47:31.939Z,19.00
2022-11-09T21:53:12.843Z,18.90
2022-11-09T21:58:53.731Z,17.60
2022-11-09T22:04:34.935Z,19.40
2022-11-09T22:10:16.249Z,16.20
2022-11-09T22:16:07.759Z,16.80
2022-11-09T22:21:48.756Z,18.10
2022-11-09T22:27:31.618Z,17.30
2022-11-09T22:33:12.426Z,15.80
2022-11-09T22:38:53.028Z,15.60
2022-11-09T22:44:33.943Z,15.00
2022-11-09T22:50:14.640Z,16.10
2022-11-09T22:55:57.850Z,15.90
2022-11-09T23:01:38.357Z,15.50
2022-11-09T23:07:19.464Z,13.50
2022-11-09T23:13:00.791Z,12.10
2022-11-09T23:18:56.383Z,14.90
2022-11-09T23:24:56.243Z,14.30
2022-11-09T23:30:37.237Z,14.30
2022-11-09T23:36:18.971Z,15.70
2022-11-09T23:41:59.933Z,15.80
2022-11-09T23:47:40.915Z,18.50
2022-11-09T23:53:22.080Z,16.70
2022-11-09T23:59:03.235Z,15.40
